createdAt,value
2018-11-06T00:00:41.949Z,0.00
2018-11-06T00:01:41.851Z,0.00
2018-11-06T00:02:41.957Z,0.00
2018-11-06T00:03:41.877Z,0.00
2018-11-06T00:04:41.760Z,0.00
2018-11-06T00:05:41.882Z,0.00
2018-11-06T00:06:41.717Z,0.00
2018-11-06T00:07:41.788Z,0.00
2018-11-06T00:08:41.799Z,0.00
2018-11-06T00:09:41.630Z,0.00
2018-11-06T00:10:41.710Z,0.00
2018-11-06T00:11:41.572Z,0.00
2018-11-06T00:12:41.623Z,0.00
2018-11-06T00:13:41.521Z,0.00
2018-11-06T00:14:41.489Z,0.00
2018-11-06T00:15:41.638Z,0.00
2018-11-06T00:16:41.440Z,0.00
2018-11-06T00:17:41.558Z,0.00
2018-11-06T00:18:41.390Z,0.00
2018-11-06T00:19:41.360Z,0.00
2018-11-06T00:20:41.338Z,0.00
2018-11-06T00:21:41.480Z,0.00
2018-11-06T00:22:41.284Z,0.00
2018-11-06T00:23:41.405Z,0.00
2018-11-06T00:24:41.221Z,0.00
2018-11-06T00:25:41.317Z,0.00
2018-11-06T00:26:41.180Z,0.00
2018-11-06T00:27:42.242Z,0.00
2018-11-06T00:28:41.119Z,0.00
2018-11-06T00:29:41.165Z,0.00
2018-11-06T00:30:41.074Z,0.00
2018-11-06T00:31:41.137Z,0.00
2018-11-06T00:32:41.018Z,0.00
2018-11-06T00:33:41.159Z,0.00
2018-11-06T00:34:40.960Z,0.00
2018-11-06T00:35:40.933Z,0.00
2018-11-06T00:36:40.909Z,0.00
2018-11-06T00:37:40.982Z,0.00
2018-11-06T00:38:40.851Z,0.00
2018-11-06T00:39:41.008Z,0.00
2018-11-06T00:40:40.799Z,0.00
2018-11-06T00:41:40.911Z,0.00
2018-11-06T00:42:40.741Z,0.00
2018-11-06T00:43:40.819Z,0.00
2018-11-06T00:44:40.690Z,0.00
2018-11-06T00:45:40.830Z,0.00
2018-11-06T00:46:40.633Z,0.00
2018-11-06T00:47:40.744Z,0.00
2018-11-06T00:48:40.583Z,0.00
2018-11-06T00:49:40.578Z,0.00
2018-11-06T00:50:40.530Z,0.00
2018-11-06T00:51:40.500Z,0.00
2018-11-06T00:52:40.680Z,0.00
2018-11-06T00:53:40.442Z,0.00
2018-11-06T00:54:40.599Z,0.00
2018-11-06T00:55:40.389Z,0.00
2018-11-06T00:56:40.500Z,0.00
2018-11-06T00:57:40.349Z,0.00
2018-11-06T00:58:40.510Z,0.00
2018-11-06T00:59:40.294Z,0.00
2018-11-06T01:00:40.436Z,0.00
2018-11-06T01:01:40.218Z,0.00
2018-11-06T01:02:40.208Z,0.00
2018-11-06T01:03:40.235Z,0.00
2018-11-06T01:04:40.348Z,0.00
2018-11-06T01:05:40.181Z,0.00
2018-11-06T01:06:40.257Z,0.00
2018-11-06T01:07:40.268Z,0.00
2018-11-06T01:08:40.047Z,0.00
2018-11-06T01:09:40.177Z,0.00
2018-11-06T01:10:39.998Z,0.00
2018-11-06T01:11:40.087Z,0.00
2018-11-06T01:12:39.948Z,0.00
2018-11-06T01:13:40.128Z,0.00
2018-11-06T01:14:39.881Z,0.00
2018-11-06T01:15:40.038Z,0.00
2018-11-06T01:16:39.818Z,0.00
2018-11-06T01:17:39.848Z,0.00
2018-11-06T01:18:39.770Z,0.00
2018-11-06T01:19:39.837Z,0.00
2018-11-06T01:20:39.720Z,0.00
2018-11-06T01:21:39.749Z,0.00
2018-11-06T01:22:39.680Z,0.00
2018-11-06T01:23:39.636Z,0.00
2018-11-06T01:24:39.610Z,0.00
2018-11-06T01:25:39.691Z,0.00
2018-11-06T01:26:39.555Z,0.00
2018-11-06T01:27:39.590Z,0.00
2018-11-06T01:28:39.509Z,0.00
2018-11-06T01:29:39.501Z,0.00
2018-11-06T01:30:39.450Z,0.00
2018-11-06T01:31:39.529Z,0.00
2018-11-06T01:32:39.389Z,0.00
2018-11-06T01:33:39.447Z,0.00
2018-11-06T01:34:39.330Z,0.00
2018-11-06T01:35:39.354Z,0.00
2018-11-06T01:36:39.286Z,0.00
2018-11-06T01:37:39.358Z,0.00
2018-11-06T01:38:39.225Z,0.00
2018-11-06T01:39:39.201Z,0.00
2018-11-06T01:40:39.179Z,0.00
2018-11-06T01:41:39.187Z,0.00
2018-11-06T01:42:39.109Z,0.00
2018-11-06T01:43:39.190Z,0.00
2018-11-06T01:44:39.060Z,0.00
2018-11-06T01:45:39.108Z,0.00
2018-11-06T01:46:38.999Z,0.00
2018-11-06T01:47:39.120Z,0.00
2018-11-06T01:48:38.957Z,0.00
2018-11-06T01:49:39.032Z,0.00
2018-11-06T01:50:38.899Z,0.00
2018-11-06T01:51:38.939Z,0.00
2018-11-06T01:52:38.854Z,0.00
2018-11-06T01:53:38.959Z,0.00
2018-11-06T01:54:38.790Z,0.00
2018-11-06T01:55:38.769Z,0.00
2018-11-06T01:56:38.730Z,0.00
2018-11-06T01:57:38.780Z,0.00
2018-11-06T01:58:38.681Z,0.00
2018-11-06T01:59:38.798Z,0.00
2018-11-06T02:00:38.621Z,0.00
2018-11-06T02:01:38.709Z,0.00
2018-11-06T02:02:38.569Z,0.00
2018-11-06T02:03:38.620Z,0.00
2018-11-06T02:04:38.519Z,0.00
2018-11-06T02:05:38.641Z,0.00
2018-11-06T02:06:38.470Z,0.00
2018-11-06T02:07:38.539Z,0.00
2018-11-06T02:08:38.418Z,0.00
2018-11-06T02:09:38.458Z,0.00
2018-11-06T02:10:38.357Z,0.00
2018-11-06T02:11:38.328Z,0.00
2018-11-06T02:12:38.300Z,0.00
2018-11-06T02:13:38.380Z,0.00
2018-11-06T02:14:38.237Z,0.00
2018-11-06T02:15:38.290Z,0.00
2018-11-06T02:16:38.197Z,0.00
2018-11-06T02:17:38.158Z,0.00
2018-11-06T02:18:38.208Z,0.00
2018-11-06T02:19:38.098Z,0.00
2018-11-06T02:20:38.229Z,0.00
2018-11-06T02:21:38.048Z,0.00
2018-11-06T02:22:38.019Z,0.00
2018-11-06T02:23:37.998Z,0.00
2018-11-06T02:24:38.049Z,0.00
2018-11-06T02:25:37.937Z,0.00
2018-11-06T02:26:38.069Z,0.00
2018-11-06T02:27:37.978Z,0.00
2018-11-06T02:28:37.868Z,0.00
2018-11-06T02:29:37.979Z,0.00
2018-11-06T02:30:37.809Z,0.00
2018-11-06T02:31:37.908Z,0.00
2018-11-06T02:32:37.952Z,0.00
2018-11-06T02:33:37.720Z,0.00
2018-11-06T02:34:37.812Z,0.00
2018-11-06T02:35:37.670Z,0.00
2018-11-06T02:36:37.730Z,0.00
2018-11-06T02:37:37.625Z,0.00
2018-11-06T02:38:37.592Z,0.00
2018-11-06T02:39:37.559Z,0.00
2018-11-06T02:40:37.548Z,0.00
2018-11-06T02:41:37.508Z,0.00
2018-11-06T02:42:37.560Z,0.00
2018-11-06T02:43:37.459Z,0.00
2018-11-06T02:44:37.469Z,0.00
2018-11-06T02:45:37.402Z,0.00
2018-11-06T02:46:37.398Z,0.00
2018-11-06T02:47:37.347Z,0.00
2018-11-06T02:48:37.459Z,0.00
2018-11-06T02:49:37.297Z,0.00
2018-11-06T02:50:37.310Z,0.00
2018-11-06T02:51:37.238Z,0.00
2018-11-06T02:52:37.230Z,0.00
2018-11-06T02:53:37.179Z,0.00
2018-11-06T02:54:37.163Z,0.00
2018-11-06T02:55:37.180Z,0.00
2018-11-06T02:56:37.158Z,0.00
2018-11-06T02:57:37.068Z,0.00
2018-11-06T02:58:37.059Z,0.00
2018-11-06T02:59:37.068Z,0.00
2018-11-06T03:00:36.989Z,0.00
2018-11-06T03:01:36.978Z,0.00
2018-11-06T03:02:36.939Z,0.00
2018-11-06T03:03:37.000Z,0.00
2018-11-06T03:04:36.887Z,0.00
2018-11-06T03:05:36.859Z,0.00
2018-11-06T03:06:36.918Z,0.00
2018-11-06T03:07:36.809Z,0.00
2018-11-06T03:08:36.828Z,0.00
2018-11-06T03:09:36.749Z,0.00
2018-11-06T03:10:36.732Z,0.00
2018-11-06T03:11:36.749Z,0.00
2018-11-06T03:12:36.668Z,0.00
2018-11-06T03:13:36.760Z,0.00
2018-11-06T03:14:36.617Z,0.00
2018-11-06T03:15:36.590Z,0.00
2018-11-06T03:16:36.616Z,0.00
2018-11-06T03:17:36.689Z,0.00
2018-11-06T03:18:36.514Z,0.00
2018-11-06T03:19:36.701Z,0.00
2018-11-06T03:20:36.458Z,0.00
2018-11-06T03:21:36.428Z,0.00
2018-11-06T03:22:36.627Z,0.00
2018-11-06T03:23:36.386Z,0.00
2018-11-06T03:24:36.528Z,0.00
2018-11-06T03:25:36.325Z,0.00
2018-11-06T03:26:36.302Z,0.00
2018-11-06T03:27:36.277Z,0.00
2018-11-06T03:28:36.361Z,0.00
2018-11-06T03:29:36.225Z,0.00
2018-11-06T03:30:36.270Z,0.00
2018-11-06T03:31:36.169Z,0.00
2018-11-06T03:32:36.194Z,0.00
2018-11-06T03:33:36.109Z,0.00
2018-11-06T03:34:36.195Z,0.00
2018-11-06T03:35:36.066Z,0.00
2018-11-06T03:36:36.090Z,0.00
2018-11-06T03:37:36.009Z,0.00
2018-11-06T03:38:36.019Z,0.00
2018-11-06T03:39:35.950Z,0.00
2018-11-06T03:40:36.027Z,0.00
2018-11-06T03:41:35.897Z,0.00
2018-11-06T03:42:35.870Z,0.00
2018-11-06T03:43:35.847Z,0.00
2018-11-06T03:44:35.949Z,0.00
2018-11-06T03:45:35.788Z,0.00
2018-11-06T03:46:35.868Z,0.00
2018-11-06T03:47:35.748Z,0.00
2018-11-06T03:48:35.778Z,0.00
2018-11-06T03:49:35.688Z,0.00
2018-11-06T03:50:35.789Z,0.00
2018-11-06T03:51:35.639Z,0.00
2018-11-06T03:52:35.700Z,0.00
2018-11-06T03:53:35.587Z,0.00
2018-11-06T03:54:35.619Z,0.00
2018-11-06T03:55:35.526Z,0.00
2018-11-06T03:56:35.628Z,0.00
2018-11-06T03:57:35.476Z,0.00
2018-11-06T03:58:35.451Z,0.00
2018-11-06T03:59:35.426Z,0.00
2018-11-06T04:00:35.448Z,0.00
2018-11-06T04:01:35.373Z,0.00
2018-11-06T04:02:35.467Z,0.00
2018-11-06T04:03:35.317Z,0.00
2018-11-06T04:04:35.378Z,0.00
2018-11-06T04:05:35.268Z,0.00
2018-11-06T04:06:35.390Z,0.00
2018-11-06T04:07:35.207Z,0.00
2018-11-06T04:08:35.305Z,0.00
2018-11-06T04:09:35.166Z,0.00
2018-11-06T04:10:35.217Z,0.00
2018-11-06T04:11:35.118Z,0.00
2018-11-06T04:12:35.227Z,0.00
2018-11-06T04:13:35.049Z,0.00
2018-11-06T04:14:35.029Z,0.00
2018-11-06T04:15:35.148Z,0.00
2018-11-06T04:16:34.979Z,0.00
2018-11-06T04:17:35.059Z,0.00
2018-11-06T04:18:34.927Z,0.00
2018-11-06T04:19:34.900Z,0.00
2018-11-06T04:20:34.878Z,0.00
2018-11-06T04:21:34.990Z,0.00
2018-11-06T04:22:34.826Z,0.00
2018-11-06T04:23:34.907Z,0.00
2018-11-06T04:24:34.774Z,0.00
2018-11-06T04:25:34.807Z,0.00
2018-11-06T04:26:34.717Z,0.00
2018-11-06T04:27:34.818Z,0.00
2018-11-06T04:28:34.659Z,0.00
2018-11-06T04:29:34.746Z,0.00
2018-11-06T04:30:34.740Z,0.00
2018-11-06T04:31:34.581Z,0.00
2018-11-06T04:32:34.648Z,0.00
2018-11-06T04:33:34.530Z,0.00
2018-11-06T04:34:34.669Z,0.00
2018-11-06T04:35:34.581Z,0.00
2018-11-06T04:36:34.453Z,0.00
2018-11-06T04:37:34.589Z,0.00
2018-11-06T04:38:34.402Z,0.00
2018-11-06T04:39:34.501Z,0.00
2018-11-06T04:40:34.382Z,0.00
2018-11-06T04:41:34.418Z,0.00
2018-11-06T04:42:34.300Z,0.00
2018-11-06T04:43:34.431Z,0.00
2018-11-06T04:44:34.242Z,0.00
2018-11-06T04:45:34.271Z,0.00
2018-11-06T04:46:34.193Z,0.00
2018-11-06T04:47:34.350Z,0.00
2018-11-06T04:48:34.137Z,0.00
2018-11-06T04:49:34.265Z,0.00
2018-11-06T04:50:34.088Z,0.00
2018-11-06T04:51:34.067Z,0.00
2018-11-06T04:52:34.047Z,0.00
2018-11-06T04:53:34.190Z,0.00
2018-11-06T04:54:33.978Z,0.00
2018-11-06T04:55:34.099Z,0.00
2018-11-06T04:56:33.930Z,0.00
2018-11-06T04:57:34.009Z,0.00
2018-11-06T04:58:33.889Z,0.00
2018-11-06T04:59:34.032Z,0.00
2018-11-06T05:00:33.827Z,0.00
2018-11-06T05:01:33.940Z,0.00
2018-11-06T05:02:33.769Z,0.00
2018-11-06T05:03:33.847Z,0.00
2018-11-06T05:04:33.719Z,0.00
2018-11-06T05:05:33.868Z,0.00
2018-11-06T05:06:33.671Z,0.00
2018-11-06T05:07:33.639Z,0.00
2018-11-06T05:08:33.779Z,0.00
2018-11-06T05:09:33.592Z,0.00
2018-11-06T05:10:33.699Z,0.00
2018-11-06T05:11:33.545Z,0.00
2018-11-06T05:12:33.510Z,0.00
2018-11-06T05:13:33.490Z,0.00
2018-11-06T05:14:33.619Z,0.00
2018-11-06T05:15:33.440Z,0.00
2018-11-06T05:16:33.528Z,0.00
2018-11-06T05:17:33.387Z,0.00
2018-11-06T05:18:33.347Z,0.00
2018-11-06T05:19:33.448Z,0.00
2018-11-06T05:20:33.293Z,0.00
2018-11-06T05:21:33.466Z,0.00
2018-11-06T05:22:33.250Z,0.00
2018-11-06T05:23:33.226Z,0.00
2018-11-06T05:24:33.200Z,0.00
2018-11-06T05:25:33.373Z,0.00
2018-11-06T05:26:33.200Z,0.00
2018-11-06T05:27:33.329Z,0.00
2018-11-06T05:28:33.091Z,0.00
2018-11-06T05:29:33.207Z,0.00
2018-11-06T05:30:33.039Z,0.00
2018-11-06T05:31:33.229Z,0.00
2018-11-06T05:32:32.996Z,0.00
2018-11-06T05:33:33.141Z,0.00
2018-11-06T05:34:32.943Z,0.00
2018-11-06T05:35:33.049Z,0.00
2018-11-06T05:36:32.888Z,0.00
2018-11-06T05:37:32.960Z,0.00
2018-11-06T05:38:32.829Z,0.00
2018-11-06T05:39:32.854Z,0.00
2018-11-06T05:40:32.781Z,0.00
2018-11-06T05:41:32.790Z,0.00
2018-11-06T05:42:32.734Z,0.00
2018-11-06T05:43:32.802Z,0.00
2018-11-06T05:44:32.679Z,0.00
2018-11-06T05:45:32.768Z,0.00
2018-11-06T05:46:32.630Z,0.00
2018-11-06T05:47:32.728Z,0.00
2018-11-06T05:48:32.568Z,0.00
2018-11-06T05:49:32.640Z,0.00
2018-11-06T05:50:32.519Z,0.00
2018-11-06T05:51:32.550Z,0.00
2018-11-06T05:52:32.462Z,0.00
2018-11-06T05:53:32.559Z,0.00
2018-11-06T05:54:32.425Z,0.00
2018-11-06T05:55:32.387Z,0.00
2018-11-06T05:56:32.369Z,0.00
2018-11-06T05:57:32.389Z,0.00
2018-11-06T05:58:32.307Z,0.00
2018-11-06T05:59:32.401Z,0.00
2018-11-06T06:00:32.331Z,0.00
2018-11-06T06:01:32.315Z,0.00
2018-11-06T06:02:32.207Z,0.00
2018-11-06T06:03:32.218Z,0.00
2018-11-06T06:04:32.159Z,0.00
2018-11-06T06:05:32.238Z,0.00
2018-11-06T06:06:32.111Z,0.00
2018-11-06T06:07:32.150Z,0.00
2018-11-06T06:08:32.048Z,4.00
2018-11-06T06:09:32.158Z,4.00
2018-11-06T06:10:32.007Z,0.00
2018-11-06T06:11:31.980Z,4.00
2018-11-06T06:12:31.949Z,0.00
2018-11-06T06:13:31.987Z,0.00
2018-11-06T06:14:31.905Z,4.00
2018-11-06T06:15:32.001Z,4.00
2018-11-06T06:16:31.909Z,4.00
2018-11-06T06:17:31.911Z,4.00
2018-11-06T06:18:31.800Z,8.00
2018-11-06T06:19:31.830Z,8.00
2018-11-06T06:20:31.739Z,8.00
2018-11-06T06:21:31.839Z,12.00
2018-11-06T06:22:31.721Z,12.00
2018-11-06T06:23:31.658Z,16.00
2018-11-06T06:24:31.762Z,16.00
2018-11-06T06:25:31.618Z,20.00
2018-11-06T06:26:31.668Z,24.00
2018-11-06T06:27:31.680Z,24.00
2018-11-06T06:28:31.592Z,24.00
2018-11-06T06:29:31.591Z,28.00
2018-11-06T06:30:31.481Z,32.00
2018-11-06T06:31:31.599Z,36.00
2018-11-06T06:32:31.428Z,36.00
2018-11-06T06:33:31.512Z,40.00
2018-11-06T06:34:31.391Z,44.00
2018-11-06T06:35:31.439Z,48.00
2018-11-06T06:36:31.328Z,52.00
2018-11-06T06:37:31.446Z,52.00
2018-11-06T06:38:31.366Z,56.00
2018-11-06T06:39:31.254Z,60.00
2018-11-06T06:40:31.359Z,68.00
2018-11-06T06:41:31.189Z,68.00
2018-11-06T06:42:31.274Z,76.00
2018-11-06T06:43:31.281Z,84.00
2018-11-06T06:44:31.118Z,92.00
2018-11-06T06:45:31.190Z,100.00
2018-11-06T06:46:31.175Z,108.00
2018-11-06T06:47:31.204Z,120.00
2018-11-06T06:48:31.009Z,128.00
2018-11-06T06:49:30.989Z,140.00
2018-11-06T06:50:31.121Z,152.00
2018-11-06T06:51:30.945Z,160.00
2018-11-06T06:52:31.027Z,176.00
2018-11-06T06:53:30.887Z,188.00
2018-11-06T06:54:30.985Z,196.00
2018-11-06T06:55:30.951Z,208.00
2018-11-06T06:56:30.815Z,228.00
2018-11-06T06:57:30.859Z,240.00
2018-11-06T06:58:30.748Z,256.00
2018-11-06T06:59:30.728Z,268.00
2018-11-06T07:00:30.887Z,284.00
2018-11-06T07:01:30.669Z,300.00
2018-11-06T07:02:30.807Z,312.00
2018-11-06T07:03:30.618Z,324.00
2018-11-06T07:04:30.600Z,340.00
2018-11-06T07:05:30.576Z,356.00
2018-11-06T07:06:30.722Z,368.00
2018-11-06T07:07:30.530Z,384.00
2018-11-06T07:08:30.638Z,396.00
2018-11-06T07:09:30.467Z,416.00
2018-11-06T07:10:30.448Z,436.00
2018-11-06T07:11:30.553Z,452.00
2018-11-06T07:12:30.387Z,468.00
2018-11-06T07:13:30.470Z,496.00
2018-11-06T07:14:30.337Z,504.00
2018-11-06T07:15:30.315Z,524.00
2018-11-06T07:16:30.288Z,524.00
2018-11-06T07:17:30.391Z,520.00
2018-11-06T07:18:30.238Z,524.00
2018-11-06T07:19:30.409Z,528.00
2018-11-06T07:20:30.309Z,544.00
2018-11-06T07:21:30.160Z,552.00
2018-11-06T07:22:30.337Z,568.00
2018-11-06T07:23:30.107Z,580.00
2018-11-06T07:24:30.237Z,588.00
2018-11-06T07:25:30.048Z,600.00
2018-11-06T07:26:30.147Z,612.00
2018-11-06T07:27:30.003Z,624.00
2018-11-06T07:28:30.171Z,636.00
2018-11-06T07:29:29.948Z,652.00
2018-11-06T07:30:30.074Z,664.00
2018-11-06T07:31:29.898Z,676.00
2018-11-06T07:32:29.990Z,688.00
2018-11-06T07:33:29.848Z,700.00
2018-11-06T07:34:30.007Z,716.00
2018-11-06T07:35:29.922Z,728.00
2018-11-06T07:36:29.768Z,744.00
2018-11-06T07:37:29.743Z,764.00
2018-11-06T07:38:29.829Z,788.00
2018-11-06T07:39:29.705Z,804.00
2018-11-06T07:40:29.883Z,828.00
2018-11-06T07:41:29.840Z,844.00
2018-11-06T07:42:29.617Z,868.00
2018-11-06T07:43:29.757Z,892.00
2018-11-06T07:44:29.577Z,924.00
2018-11-06T07:45:29.669Z,944.00
2018-11-06T07:46:29.517Z,968.00
2018-11-06T07:47:29.498Z,996.00
2018-11-06T07:48:29.480Z,1016.00
2018-11-06T07:49:29.437Z,1028.00
2018-11-06T07:50:29.560Z,1036.00
2018-11-06T07:51:29.379Z,1052.00
2018-11-06T07:52:29.358Z,1076.00
2018-11-06T07:53:29.338Z,1096.00
2018-11-06T07:54:29.432Z,1116.00
2018-11-06T07:55:29.297Z,1136.00
2018-11-06T07:56:29.338Z,1164.00
2018-11-06T07:57:29.336Z,1188.00
2018-11-06T07:58:29.208Z,1208.00
2018-11-06T07:59:29.257Z,1228.00
2018-11-06T08:00:29.157Z,1256.00
2018-11-06T08:01:29.169Z,1280.00
2018-11-06T08:02:29.097Z,1312.00
2018-11-06T08:03:29.079Z,1356.00
2018-11-06T08:04:29.260Z,1408.00
2018-11-06T08:05:29.029Z,1484.00
2018-11-06T08:06:29.202Z,1500.00
2018-11-06T08:07:28.978Z,1528.00
2018-11-06T08:08:28.950Z,1576.00
2018-11-06T08:09:29.057Z,1624.00
2018-11-06T08:10:28.899Z,1664.00
2018-11-06T08:11:28.929Z,1716.00
2018-11-06T08:12:28.848Z,1772.00
2018-11-06T08:13:28.834Z,1820.00
2018-11-06T08:14:28.858Z,1860.00
2018-11-06T08:15:28.857Z,1900.00
2018-11-06T08:16:28.759Z,1940.00
2018-11-06T08:17:28.869Z,1964.00
2018-11-06T08:18:28.699Z,1976.00
2018-11-06T08:19:28.779Z,1996.00
2018-11-06T08:20:28.712Z,2012.00
2018-11-06T08:21:28.686Z,2044.00
2018-11-06T08:22:28.598Z,2064.00
2018-11-06T08:23:28.670Z,2084.00
2018-11-06T08:24:28.548Z,2096.00
2018-11-06T08:25:28.616Z,2116.00
2018-11-06T08:26:28.509Z,2128.00
2018-11-06T08:27:28.562Z,2176.00
2018-11-06T08:28:28.447Z,2232.00
2018-11-06T08:29:28.432Z,2264.00
2018-11-06T08:30:28.414Z,2292.00
2018-11-06T08:31:29.093Z,2324.00
2018-11-06T08:32:28.867Z,2360.00
2018-11-06T08:33:28.428Z,2384.00
2018-11-06T08:34:28.307Z,2440.00
2018-11-06T08:35:28.338Z,2488.00
2018-11-06T08:36:28.304Z,2520.00
2018-11-06T08:37:28.248Z,2540.00
2018-11-06T08:38:28.196Z,2580.00
2018-11-06T08:40:59.958Z,2720.00
2018-11-06T08:41:59.868Z,2772.00
2018-11-06T08:42:59.957Z,2820.00
2018-11-06T08:43:59.818Z,2864.00
2018-11-06T08:44:59.790Z,2896.00
2018-11-06T08:45:59.774Z,2940.00
2018-11-06T08:46:59.768Z,2952.00
2018-11-06T08:47:59.777Z,3012.00
2018-11-06T08:48:59.779Z,3044.00
2018-11-06T08:49:59.667Z,3072.00
2018-11-06T08:50:59.687Z,3148.00
2018-11-06T08:51:59.629Z,3192.00
2018-11-06T08:52:59.698Z,3268.00
2018-11-06T08:53:59.576Z,3332.00
2018-11-06T08:54:59.609Z,3384.00
2018-11-06T08:55:59.520Z,3468.00
2018-11-06T08:56:59.524Z,3604.00
2018-11-06T08:57:59.479Z,3832.00
2018-11-06T08:58:59.528Z,4404.00
2018-11-06T08:59:59.425Z,6904.00
2018-11-06T09:00:59.400Z,17440.00
2018-11-06T09:01:59.382Z,19456.00
2018-11-06T09:02:59.566Z,19456.00
2018-11-06T09:03:59.336Z,14752.00
2018-11-06T09:04:59.467Z,14688.00
2018-11-06T09:05:59.287Z,15392.00
2018-11-06T09:06:59.376Z,14592.00
2018-11-06T09:07:59.248Z,14116.00
2018-11-06T09:08:59.431Z,11500.00
2018-11-06T09:09:59.208Z,11540.00
2018-11-06T09:10:59.300Z,10628.00
2018-11-06T09:11:59.148Z,13152.00
2018-11-06T09:12:59.320Z,11532.00
2018-11-06T09:13:59.114Z,11664.00
2018-11-06T09:14:59.126Z,12632.00
2018-11-06T09:15:59.072Z,11632.00
2018-11-06T09:16:59.078Z,12016.00
2018-11-06T09:17:59.029Z,9320.00
2018-11-06T09:18:59.057Z,8536.00
2018-11-06T09:19:58.978Z,9864.00
2018-11-06T09:20:59.068Z,14976.00
2018-11-06T09:21:58.950Z,19648.00
2018-11-06T09:22:58.982Z,18048.00
2018-11-06T09:23:58.905Z,15808.00
2018-11-06T09:24:58.997Z,17344.00
2018-11-06T09:25:58.877Z,21568.00
2018-11-06T09:26:58.908Z,20928.00
2018-11-06T09:27:58.834Z,19712.00
2018-11-06T09:28:58.918Z,19648.00
2018-11-06T09:29:58.798Z,19040.00
2018-11-06T09:30:58.860Z,20128.00
2018-11-06T09:31:58.758Z,19584.00
2018-11-06T09:32:58.738Z,19744.00
2018-11-06T09:33:58.717Z,19488.00
2018-11-06T09:34:58.781Z,17792.00
2018-11-06T09:35:58.702Z,19744.00
2018-11-06T09:36:58.769Z,19040.00
2018-11-06T09:37:58.664Z,16160.00
2018-11-06T09:38:58.800Z,15680.00
2018-11-06T09:39:58.637Z,18528.00
2018-11-06T09:40:58.699Z,20896.00
2018-11-06T09:41:58.609Z,21280.00
2018-11-06T09:42:58.725Z,28768.00
2018-11-06T09:43:58.581Z,59520.00
2018-11-06T09:44:58.674Z,107104.00
2018-11-06T09:45:58.559Z,124864.00
2018-11-06T09:46:58.637Z,117312.00
2018-11-06T09:47:58.538Z,98272.00
2018-11-06T09:48:58.520Z,85120.00
2018-11-06T09:49:58.531Z,85664.00
2018-11-06T09:50:58.568Z,68512.00
2018-11-06T09:51:58.503Z,70048.00
2018-11-06T09:52:58.580Z,73664.00
2018-11-06T09:53:58.469Z,74880.00
2018-11-06T09:54:58.595Z,82016.00
2018-11-06T09:55:58.448Z,79072.00
2018-11-06T09:56:58.513Z,72576.00
2018-11-06T09:57:58.427Z,65632.00
2018-11-06T09:58:58.523Z,66752.00
2018-11-06T09:59:58.532Z,68800.00
2018-11-06T10:00:58.399Z,71232.00
2018-11-06T10:01:58.542Z,72320.00
2018-11-06T10:02:58.381Z,71328.00
2018-11-06T10:03:58.471Z,80832.00
2018-11-06T10:04:58.368Z,77536.00
2018-11-06T10:05:58.515Z,81888.00
2018-11-06T10:06:58.649Z,80320.00
2018-11-06T10:07:58.555Z,81312.00
2018-11-06T10:08:58.332Z,81312.00
2018-11-06T10:09:58.388Z,75232.00
2018-11-06T10:10:58.309Z,76864.00
2018-11-06T10:11:58.407Z,87392.00
2018-11-06T10:12:58.299Z,88672.00
2018-11-06T10:13:58.420Z,88320.00
2018-11-06T10:14:58.280Z,83008.00
2018-11-06T10:15:58.274Z,85984.00
2018-11-06T10:16:58.269Z,78080.00
2018-11-06T10:17:58.351Z,75328.00
2018-11-06T10:18:58.251Z,62944.00
2018-11-06T10:19:58.358Z,67584.00
2018-11-06T10:20:58.247Z,67712.00
2018-11-06T10:21:58.368Z,59840.00
2018-11-06T10:22:58.230Z,64992.00
2018-11-06T10:23:58.388Z,74304.00
2018-11-06T10:24:58.214Z,65024.00
2018-11-06T10:25:58.237Z,76160.00
2018-11-06T10:26:58.309Z,75872.00
2018-11-06T10:27:58.196Z,73728.00
2018-11-06T10:28:58.324Z,74720.00
2018-11-06T10:29:58.181Z,74944.00
2018-11-06T10:30:58.455Z,61984.00
2018-11-06T10:31:58.167Z,33408.00
2018-11-06T10:32:58.250Z,56608.00
2018-11-06T10:33:58.147Z,69984.00
2018-11-06T10:34:58.259Z,80320.00
2018-11-06T10:35:58.140Z,78304.00
2018-11-06T10:36:58.281Z,68480.00
2018-11-06T10:37:58.275Z,78432.00
2018-11-06T10:38:58.109Z,74848.00
2018-11-06T10:39:58.188Z,75424.00
2018-11-06T10:40:58.090Z,71104.00
2018-11-06T10:41:58.208Z,63456.00
2018-11-06T10:42:58.087Z,63200.00
2018-11-06T10:43:58.218Z,69184.00
2018-11-06T10:44:58.068Z,70144.00
2018-11-06T10:45:58.238Z,71872.00
2018-11-06T10:46:58.048Z,70048.00
2018-11-06T10:47:58.148Z,70176.00
2018-11-06T10:48:58.044Z,68032.00
2018-11-06T10:49:58.158Z,63552.00
2018-11-06T10:50:58.039Z,52768.00
2018-11-06T10:51:58.244Z,58880.00
2018-11-06T10:52:58.007Z,57888.00
2018-11-06T10:53:58.022Z,56864.00
2018-11-06T10:54:57.999Z,53024.00
2018-11-06T10:55:58.027Z,53216.00
2018-11-06T10:56:57.998Z,57888.00
2018-11-06T10:57:58.077Z,52640.00
2018-11-06T10:58:57.969Z,53344.00
2018-11-06T10:59:58.037Z,54880.00
2018-11-06T11:00:57.958Z,65824.00
2018-11-06T11:01:58.048Z,67168.00
2018-11-06T11:02:57.962Z,65504.00
2018-11-06T11:03:57.985Z,59488.00
2018-11-06T11:04:57.938Z,51104.00
2018-11-06T11:05:57.980Z,39520.00
2018-11-06T11:06:57.918Z,43040.00
2018-11-06T11:07:57.987Z,38880.00
2018-11-06T11:08:57.911Z,8620.00
2018-11-06T11:09:57.917Z,9924.00
2018-11-06T11:10:58.010Z,45824.00
2018-11-06T11:11:57.897Z,20544.00
2018-11-06T11:12:57.919Z,23680.00
2018-11-06T11:13:57.877Z,48672.00
2018-11-06T11:14:57.869Z,51904.00
2018-11-06T11:15:57.865Z,38944.00
2018-11-06T11:16:57.948Z,39936.00
2018-11-06T11:17:57.852Z,48768.00
2018-11-06T11:18:57.859Z,52000.00
2018-11-06T11:19:57.880Z,43392.00
2018-11-06T11:20:57.838Z,34720.00
2018-11-06T11:21:57.866Z,40896.00
2018-11-06T11:22:57.809Z,44640.00
2018-11-06T11:23:57.877Z,49248.00
2018-11-06T11:24:57.790Z,51584.00
2018-11-06T11:25:57.901Z,45536.00
2018-11-06T11:26:57.778Z,37408.00
2018-11-06T11:27:59.856Z,33408.00
2018-11-06T11:28:57.761Z,40416.00
2018-11-06T11:29:57.836Z,38848.00
2018-11-06T11:30:57.746Z,29824.00
2018-11-06T11:31:57.849Z,30944.00
2018-11-06T11:32:57.732Z,33248.00
2018-11-06T11:33:58.779Z,33120.00
2018-11-06T11:34:57.726Z,32768.00
2018-11-06T11:35:57.723Z,38688.00
2018-11-06T11:36:57.698Z,37248.00
2018-11-06T11:37:57.794Z,44256.00
2018-11-06T11:38:57.684Z,44384.00
2018-11-06T11:39:57.801Z,49760.00
2018-11-06T11:40:57.708Z,56800.00
2018-11-06T11:41:57.657Z,47712.00
2018-11-06T11:42:57.728Z,55712.00
2018-11-06T11:43:57.655Z,48288.00
2018-11-06T11:44:57.728Z,35808.00
2018-11-06T11:45:57.715Z,32256.00
2018-11-06T11:46:57.653Z,35232.00
2018-11-06T11:47:57.637Z,36000.00
2018-11-06T11:48:57.659Z,33440.00
2018-11-06T11:49:57.588Z,34176.00
2018-11-06T11:50:57.678Z,30368.00
2018-11-06T11:51:57.584Z,34720.00
2018-11-06T11:52:57.594Z,38976.00
2018-11-06T11:53:57.567Z,37728.00
2018-11-06T11:54:57.599Z,40992.00
2018-11-06T11:55:57.546Z,41056.00
2018-11-06T11:56:57.544Z,38944.00
2018-11-06T11:57:57.535Z,36000.00
2018-11-06T11:58:57.627Z,32992.00
2018-11-06T11:59:57.554Z,34304.00
2018-11-06T12:00:57.538Z,35328.00
2018-11-06T12:01:57.558Z,36224.00
2018-11-06T12:02:57.579Z,35904.00
2018-11-06T12:03:57.491Z,34624.00
2018-11-06T12:04:57.567Z,32192.00
2018-11-06T12:05:57.467Z,31104.00
2018-11-06T12:06:57.597Z,34080.00
2018-11-06T12:07:57.459Z,31936.00
2018-11-06T12:08:57.499Z,29408.00
2018-11-06T12:09:57.446Z,22944.00
2018-11-06T12:10:57.530Z,20512.00
2018-11-06T12:11:57.431Z,28576.00
2018-11-06T12:12:57.416Z,22464.00
2018-11-06T12:13:57.407Z,25696.00
2018-11-06T12:14:57.452Z,29568.00
2018-11-06T12:15:57.399Z,23488.00
2018-11-06T12:16:57.447Z,24064.00
2018-11-06T12:17:57.385Z,28640.00
2018-11-06T12:18:57.477Z,27680.00
2018-11-06T12:19:57.360Z,29280.00
2018-11-06T12:20:57.377Z,31520.00
2018-11-06T12:21:57.337Z,30432.00
2018-11-06T12:22:57.387Z,27136.00
2018-11-06T12:23:57.358Z,24800.00
2018-11-06T12:24:57.582Z,21920.00
2018-11-06T12:25:57.327Z,24512.00
2018-11-06T12:26:57.328Z,21824.00
2018-11-06T12:27:57.288Z,21216.00
2018-11-06T12:28:57.284Z,18656.00
2018-11-06T12:29:57.276Z,17248.00
2018-11-06T12:30:57.338Z,17376.00
2018-11-06T12:31:57.261Z,18304.00
2018-11-06T12:32:57.359Z,18336.00
2018-11-06T12:33:57.236Z,19040.00
2018-11-06T12:34:57.278Z,17376.00
2018-11-06T12:35:57.229Z,16608.00
2018-11-06T12:36:57.355Z,17280.00
2018-11-06T12:37:57.199Z,22528.00
2018-11-06T12:38:57.297Z,19712.00